createdAt,value
2022-10-08T00:00:02.811Z,8.1
2022-10-08T00:20:02.455Z,7.9
2022-10-08T00:40:02.893Z,7.9
2022-10-08T01:00:02.297Z,7.8
2022-10-08T01:20:03.029Z,7.8
2022-10-08T01:40:02.360Z,7.8
2022-10-08T02:00:02.672Z,8
2022-10-08T02:20:03.053Z,8.5
2022-10-08T03:00:03.119Z,8.5
2022-10-08T03:20:02.751Z,8.6
2022-10-08T04:00:03.259Z,8.3
2022-10-08T04:40:02.217Z,7.9
2022-10-08T05:00:19.215Z,8
2022-10-08T05:20:02.446Z,7.6
2022-10-08T05:40:02.707Z,7.6
2022-10-08T06:00:03.153Z,7.5
2022-10-08T06:20:02.623Z,7.5
2022-10-08T06:40:02.882Z,7.7
2022-10-08T07:00:02.228Z,7.9
2022-10-08T07:20:02.812Z,8.6
2022-10-08T07:40:02.131Z,9.4
2022-10-08T08:00:02.422Z,10.3
2022-10-08T08:20:02.905Z,11.2
2022-10-08T08:40:02.134Z,12.7
2022-10-08T09:00:02.414Z,14.2
2022-10-08T09:20:02.910Z,16
2022-10-08T09:40:02.306Z,16.6
2022-10-08T10:00:02.516Z,17.3
2022-10-08T10:20:02.936Z,16.5
2022-10-08T10:40:02.299Z,16.2
2022-10-08T11:20:02.615Z,15.3
2022-10-08T11:40:02.913Z,15.2
2022-10-08T12:00:07.903Z,14.8
2022-10-08T12:20:02.243Z,14.3
2022-10-08T12:40:02.447Z,14
2022-10-08T13:00:02.722Z,14.2
2022-10-08T13:20:02.063Z,14.5
2022-10-08T13:40:02.314Z,14.4
2022-10-08T14:20:02.667Z,14.7
2022-10-08T14:40:02.935Z,14.9
2022-10-08T15:00:02.238Z,14.9
2022-10-08T15:20:02.606Z,14.2
2022-10-08T15:40:02.816Z,13.3
2022-10-08T16:00:02.447Z,12.8
2022-10-08T16:20:03.119Z,12.3
2022-10-08T16:40:02.516Z,12.2
2022-10-08T17:00:02.902Z,12
2022-10-08T17:20:02.317Z,11.9
2022-10-08T17:40:02.660Z,11.7
2022-10-08T18:00:03.233Z,11.5
2022-10-08T18:20:02.982Z,11.2
2022-10-08T18:40:02.553Z,10.9
2022-10-08T19:00:03.000Z,10.7
2022-10-08T19:20:02.495Z,10.5
2022-10-08T19:40:03.054Z,10.2
2022-10-08T20:00:02.433Z,10
2022-10-08T20:20:20.810Z,9.8
2022-10-08T20:40:02.802Z,9.9
2022-10-08T21:00:02.383Z,9.7
2022-10-08T21:20:02.857Z,9.7
2022-10-08T22:20:02.839Z,9.1
2022-10-08T22:40:02.243Z,8.8
2022-10-08T23:00:02.638Z,8.9
2022-10-08T23:20:02.111Z,8.7
